sensor_id;sensor_type;location;lat;lon;timestamp;noise_LAeq;noise_LA_min;noise_LA_max;noise_LA01;noise_LA95
74496;Laerm;62979;55.720;37.606;2023-06-22T00:00:56;44.67;40.02;56.97;;
74496;Laerm;62979;55.720;37.606;2023-06-22T00:03:25;45.47;39.76;58.16;;
74496;Laerm;62979;55.720;37.606;2023-06-22T00:05:54;45.44;41.50;49.63;;
74496;Laerm;62979;55.720;37.606;2023-06-22T00:08:21;46.61;41.78;64.75;;
74496;Laerm;62979;55.720;37.606;2023-06-22T00:10:48;46.25;42.18;56.93;;
74496;Laerm;62979;55.720;37.606;2023-06-22T00:13:16;48.67;42.72;58.28;;
74496;Laerm;62979;55.720;37.606;2023-06-22T00:15:44;46.80;42.25;51.55;;
74496;Laerm;62979;55.720;37.606;2023-06-22T00:18:11;49.10;42.60;63.47;;
74496;Laerm;62979;55.720;37.606;2023-06-22T00:20:39;47.47;42.61;54.70;;
74496;Laerm;62979;55.720;37.606;2023-06-22T00:23:08;48.80;42.34;57.68;;
74496;Laerm;62979;55.720;37.606;2023-06-22T00:25:35;48.76;42.00;61.75;;
74496;Laerm;62979;55.720;37.606;2023-06-22T00:28:02;46.11;42.10;52.24;;
74496;Laerm;62979;55.720;37.606;2023-06-22T00:30:30;46.22;42.06;53.62;;
74496;Laerm;62979;55.720;37.606;2023-06-22T00:32:58;46.77;42.38;52.83;;
74496;Laerm;62979;55.720;37.606;2023-06-22T00:35:25;46.93;42.12;55.25;;
74496;Laerm;62979;55.720;37.606;2023-06-22T00:37:54;48.15;42.50;57.50;;
74496;Laerm;62979;55.720;37.606;2023-06-22T00:40:28;49.37;42.89;61.24;;
74496;Laerm;62979;55.720;37.606;2023-06-22T00:42:55;47.49;41.66;58.56;;
74496;Laerm;62979;55.720;37.606;2023-06-22T00:45:22;47.86;41.42;57.73;;
74496;Laerm;62979;55.720;37.606;2023-06-22T00:47:51;48.97;43.35;58.05;;
74496;Laerm;62979;55.720;37.606;2023-06-22T00:50:21;48.79;42.93;60.83;;
74496;Laerm;62979;55.720;37.606;2023-06-22T00:52:52;49.37;43.12;62.48;;
74496;Laerm;62979;55.720;37.606;2023-06-22T00:55:21;47.01;42.34;59.42;;
74496;Laerm;62979;55.720;37.606;2023-06-22T00:57:50;47.30;41.48;57.43;;
74496;Laerm;62979;55.720;37.606;2023-06-22T01:00:23;47.45;41.64;59.74;;
74496;Laerm;62979;55.720;37.606;2023-06-22T01:02:52;46.21;41.81;54.36;;
74496;Laerm;62979;55.720;37.606;2023-06-22T01:05:21;46.17;41.88;58.27;;
74496;Laerm;62979;55.720;37.606;2023-06-22T01:08:04;47.49;41.43;60.73;;
74496;Laerm;62979;55.720;37.606;2023-06-22T01:10:41;48.60;42.49;63.77;;
74496;Laerm;62979;55.720;37.606;2023-06-22T01:13:23;49.60;43.26;60.23;;
74496;Laerm;62979;55.720;37.606;2023-06-22T01:16:00;48.90;42.89;58.59;;
74496;Laerm;62979;55.720;37.606;2023-06-22T01:18:31;48.41;43.13;54.65;;
74496;Laerm;62979;55.720;37.606;2023-06-22T01:21:03;49.20;43.40;56.77;;
74496;Laerm;62979;55.720;37.606;2023-06-22T01:23:53;47.89;42.99;53.38;;
74496;Laerm;62979;55.720;37.606;2023-06-22T01:26:31;47.33;43.22;53.83;;
74496;Laerm;62979;55.720;37.606;2023-06-22T01:29:05;47.36;42.29;52.12;;
74496;Laerm;62979;55.720;37.606;2023-06-22T01:31:34;48.22;42.65;56.50;;
74496;Laerm;62979;55.720;37.606;2023-06-22T01:34:05;46.51;42.69;51.32;;
74496;Laerm;62979;55.720;37.606;2023-06-22T01:36:34;47.32;41.98;54.02;;
74496;Laerm;62979;55.720;37.606;2023-06-22T01:39:04;48.66;42.99;56.10;;
74496;Laerm;62979;55.720;37.606;2023-06-22T01:41:37;48.77;42.64;60.40;;
74496;Laerm;62979;55.720;37.606;2023-06-22T01:44:07;47.56;42.58;53.31;;
74496;Laerm;62979;55.720;37.606;2023-06-22T01:46:36;46.90;43.00;51.65;;
74496;Laerm;62979;55.720;37.606;2023-06-22T01:49:05;50.23;42.66;59.97;;
74496;Laerm;62979;55.720;37.606;2023-06-22T01:51:33;46.93;43.15;51.94;;
74496;Laerm;62979;55.720;37.606;2023-06-22T01:54:01;48.61;42.91;63.18;;
74496;Laerm;62979;55.720;37.606;2023-06-22T01:56:28;46.54;42.60;52.11;;
74496;Laerm;62979;55.720;37.606;2023-06-22T01:59:02;47.20;42.33;58.94;;
74496;Laerm;62979;55.720;37.606;2023-06-22T02:01:41;47.57;41.97;58.78;;
74496;Laerm;62979;55.720;37.606;2023-06-22T02:04:18;48.74;41.91;60.37;;
74496;Laerm;62979;55.720;37.606;2023-06-22T02:06:50;46.02;41.97;51.29;;
74496;Laerm;62979;55.720;37.606;2023-06-22T02:09:20;48.43;42.45;63.43;;
74496;Laerm;62979;55.720;37.606;2023-06-22T02:11:52;47.54;41.70;59.53;;
74496;Laerm;62979;55.720;37.606;2023-06-22T02:14:22;46.42;41.48;53.19;;
74496;Laerm;62979;55.720;37.606;2023-06-22T02:16:52;46.13;42.07;54.93;;
74496;Laerm;62979;55.720;37.606;2023-06-22T02:19:23;45.16;40.88;50.09;;
74496;Laerm;62979;55.720;37.606;2023-06-22T02:21:50;46.77;41.24;55.51;;
74496;Laerm;62979;55.720;37.606;2023-06-22T02:24:17;48.81;41.64;59.34;;
74496;Laerm;62979;55.720;37.606;2023-06-22T02:26:44;45.76;41.16;55.89;;
74496;Laerm;62979;55.720;37.606;2023-06-22T02:29:11;46.30;41.47;59.89;;
74496;Laerm;62979;55.720;37.606;2023-06-22T02:31:38;45.93;41.37;55.72;;
74496;Laerm;62979;55.720;37.606;2023-06-22T02:34:06;49.71;40.95;66.70;;
74496;Laerm;62979;55.720;37.606;2023-06-22T02:36:33;46.85;40.66;62.27;;
74496;Laerm;62979;55.720;37.606;2023-06-22T02:39:01;46.01;40.51;54.82;;
74496;Laerm;62979;55.720;37.606;2023-06-22T02:41:29;45.37;41.24;53.31;;
74496;Laerm;62979;55.720;37.606;2023-06-22T02:43:56;46.09;40.58;55.43;;
74496;Laerm;62979;55.720;37.606;2023-06-22T02:46:23;49.12;41.92;62.12;;
74496;Laerm;62979;55.720;37.606;2023-06-22T02:48:50;46.98;41.28;59.33;;
74496;Laerm;62979;55.720;37.606;2023-06-22T02:51:18;48.64;41.57;64.39;;
74496;Laerm;62979;55.720;37.606;2023-06-22T02:53:45;51.84;43.03;64.28;;
74496;Laerm;62979;55.720;37.606;2023-06-22T02:56:12;52.36;43.32;64.07;;
74496;Laerm;62979;55.720;37.606;2023-06-22T02:58:39;47.72;43.58;58.10;;
74496;Laerm;62979;55.720;37.606;2023-06-22T03:01:06;49.59;43.65;58.75;;
74496;Laerm;62979;55.720;37.606;2023-06-22T03:03:33;50.72;44.90;69.24;;
74496;Laerm;62979;55.720;37.606;2023-06-22T03:06:00;52.23;45.37;62.76;;
74496;Laerm;62979;55.720;37.606;2023-06-22T03:08:29;51.92;44.81;62.03;;
74496;Laerm;62979;55.720;37.606;2023-06-22T03:10:56;49.39;44.44;69.15;;
74496;Laerm;62979;55.720;37.606;2023-06-22T03:13:23;49.42;44.62;59.93;;
74496;Laerm;62979;55.720;37.606;2023-06-22T03:15:50;51.12;45.10;64.48;;
74496;Laerm;62979;55.720;37.606;2023-06-22T03:18:18;52.05;43.87;62.87;;
74496;Laerm;62979;55.720;37.606;2023-06-22T03:20:45;51.13;45.16;62.29;;
74496;Laerm;62979;55.720;37.606;2023-06-22T03:23:12;51.94;46.53;61.78;;
74496;Laerm;62979;55.720;37.606;2023-06-22T03:25:42;57.83;46.97;81.57;;
74496;Laerm;62979;55.720;37.606;2023-06-22T03:28:10;51.62;44.75;62.68;;
74496;Laerm;62979;55.720;37.606;2023-06-22T03:30:37;50.41;44.94;72.68;;
74496;Laerm;62979;55.720;37.606;2023-06-22T03:33:04;53.66;44.72;65.12;;
74496;Laerm;62979;55.720;37.606;2023-06-22T03:35:31;51.44;45.39;60.50;;
74496;Laerm;62979;55.720;37.606;2023-06-22T03:37:57;50.56;44.76;60.41;;
74496;Laerm;62979;55.720;37.606;2023-06-22T03:40:24;54.09;44.16;63.94;;
74496;Laerm;62979;55.720;37.606;2023-06-22T03:42:52;49.59;44.09;59.01;;
74496;Laerm;62979;55.720;37.606;2023-06-22T03:45:19;52.56;45.13;61.42;;
74496;Laerm;62979;55.720;37.606;2023-06-22T03:47:46;50.33;45.25;58.88;;
74496;Laerm;62979;55.720;37.606;2023-06-22T03:50:13;53.02;44.08;64.84;;
74496;Laerm;62979;55.720;37.606;2023-06-22T03:52:40;51.07;44.49;66.34;;
74496;Laerm;62979;55.720;37.606;2023-06-22T03:55:09;58.09;46.30;66.95;;
74496;Laerm;62979;55.720;37.606;2023-06-22T03:57:36;53.21;45.69;61.32;;
74496;Laerm;62979;55.720;37.606;2023-06-22T04:00:06;50.71;44.27;62.55;;
74496;Laerm;62979;55.720;37.606;2023-06-22T04:02:35;53.09;45.86;64.05;;
74496;Laerm;62979;55.720;37.606;2023-06-22T04:05:02;51.01;44.94;60.45;;
74496;Laerm;62979;55.720;37.606;2023-06-22T04:07:29;53.68;44.77;77.52;;
74496;Laerm;62979;55.720;37.606;2023-06-22T04:09:56;54.68;44.87;67.72;;
74496;Laerm;62979;55.720;37.606;2023-06-22T04:12:23;53.56;46.12;62.71;;
74496;Laerm;62979;55.720;37.606;2023-06-22T04:14:50;54.03;47.34;62.65;;
74496;Laerm;62979;55.720;37.606;2023-06-22T04:17:18;51.30;45.94;60.94;;
74496;Laerm;62979;55.720;37.606;2023-06-22T04:19:45;54.88;50.10;61.62;;
74496;Laerm;62979;55.720;37.606;2023-06-22T04:22:12;55.87;50.17;73.62;;
74496;Laerm;62979;55.720;37.606;2023-06-22T04:24:39;52.66;44.71;65.26;;
74496;Laerm;62979;55.720;37.606;2023-06-22T04:27:06;51.17;44.52;67.79;;
74496;Laerm;62979;55.720;37.606;2023-06-22T04:29:33;53.36;46.03;63.50;;
74496;Laerm;62979;55.720;37.606;2023-06-22T04:32:00;53.57;47.28;66.69;;
74496;Laerm;62979;55.720;37.606;2023-06-22T04:34:30;54.52;44.82;63.64;;
74496;Laerm;62979;55.720;37.606;2023-06-22T04:36:57;53.53;47.21;62.04;;
74496;Laerm;62979;55.720;37.606;2023-06-22T04:39:24;54.58;48.57;62.26;;
74496;Laerm;62979;55.720;37.606;2023-06-22T04:41:52;56.08;48.05;63.33;;
74496;Laerm;62979;55.720;37.606;2023-06-22T04:44:20;59.53;48.48;71.40;;
74496;Laerm;62979;55.720;37.606;2023-06-22T04:46:50;55.65;49.05;75.54;;
74496;Laerm;62979;55.720;37.606;2023-06-22T04:49:20;55.95;47.48;69.85;;
74496;Laerm;62979;55.720;37.606;2023-06-22T04:51:49;58.58;49.57;75.70;;
74496;Laerm;62979;55.720;37.606;2023-06-22T04:54:17;59.25;48.93;71.43;;
74496;Laerm;62979;55.720;37.606;2023-06-22T04:56:44;58.34;47.97;72.33;;
74496;Laerm;62979;55.720;37.606;2023-06-22T04:59:12;54.17;47.93;61.83;;
74496;Laerm;62979;55.720;37.606;2023-06-22T05:01:39;54.17;45.58;67.73;;
74496;Laerm;62979;55.720;37.606;2023-06-22T05:04:06;55.83;49.08;63.09;;
74496;Laerm;62979;55.720;37.606;2023-06-22T05:06:34;55.82;48.83;66.43;;
74496;Laerm;62979;55.720;37.606;2023-06-22T05:09:02;54.97;48.63;66.17;;
74496;Laerm;62979;55.720;37.606;2023-06-22T05:11:31;59.10;48.76;74.08;;
74496;Laerm;62979;55.720;37.606;2023-06-22T05:13:57;57.20;51.64;71.18;;
74496;Laerm;62979;55.720;37.606;2023-06-22T05:16:25;55.20;50.11;65.26;;
74496;Laerm;62979;55.720;37.606;2023-06-22T05:18:52;58.74;50.94;69.99;;
74496;Laerm;62979;55.720;37.606;2023-06-22T05:21:22;65.52;49.81;82.56;;
74496;Laerm;62979;55.720;37.606;2023-06-22T05:23:50;56.46;49.49;64.34;;
74496;Laerm;62979;55.720;37.606;2023-06-22T05:26:19;55.66;48.96;61.60;;
74496;Laerm;62979;55.720;37.606;2023-06-22T05:28:47;55.58;49.93;62.90;;
74496;Laerm;62979;55.720;37.606;2023-06-22T05:31:15;55.86;48.75;66.14;;
74496;Laerm;62979;55.720;37.606;2023-06-22T05:33:43;55.52;50.21;72.41;;
74496;Laerm;62979;55.720;37.606;2023-06-22T05:36:11;54.76;48.05;67.56;;
74496;Laerm;62979;55.720;37.606;2023-06-22T05:38:38;58.07;52.20;69.30;;
74496;Laerm;62979;55.720;37.606;2023-06-22T05:41:05;57.76;48.35;71.82;;
74496;Laerm;62979;55.720;37.606;2023-06-22T05:43:34;57.42;49.13;68.84;;
74496;Laerm;62979;55.720;37.606;2023-06-22T05:46:02;55.89;49.23;67.11;;
74496;Laerm;62979;55.720;37.606;2023-06-22T05:48:29;54.48;48.46;64.37;;
74496;Laerm;62979;55.720;37.606;2023-06-22T05:50:56;56.51;49.62;64.51;;
74496;Laerm;62979;55.720;37.606;2023-06-22T05:53:23;56.70;49.38;68.81;;
74496;Laerm;62979;55.720;37.606;2023-06-22T05:55:50;56.51;48.59;65.44;;
74496;Laerm;62979;55.720;37.606;2023-06-22T05:58:17;56.85;48.95;65.13;;
74496;Laerm;62979;55.720;37.606;2023-06-22T06:00:45;58.92;51.52;71.96;;
74496;Laerm;62979;55.720;37.606;2023-06-22T06:03:13;57.57;51.14;63.39;;
74496;Laerm;62979;55.720;37.606;2023-06-22T06:05:43;57.31;51.57;70.56;;
74496;Laerm;62979;55.720;37.606;2023-06-22T06:08:11;55.97;50.37;64.01;;
74496;Laerm;62979;55.720;37.606;2023-06-22T06:10:38;64.49;51.87;80.54;;
74496;Laerm;62979;55.720;37.606;2023-06-22T06:13:05;64.94;49.99;81.27;;
74496;Laerm;62979;55.720;37.606;2023-06-22T06:15:33;63.26;53.32;75.75;;
74496;Laerm;62979;55.720;37.606;2023-06-22T06:18:02;65.05;54.42;81.40;;
74496;Laerm;62979;55.720;37.606;2023-06-22T06:20:31;62.01;54.68;73.14;;
74496;Laerm;62979;55.720;37.606;2023-06-22T06:22:59;62.60;49.93;77.97;;
74496;Laerm;62979;55.720;37.606;2023-06-22T06:25:26;60.58;49.72;77.02;;
74496;Laerm;62979;55.720;37.606;2023-06-22T06:27:53;57.52;49.58;69.31;;
74496;Laerm;62979;55.720;37.606;2023-06-22T06:30:21;54.68;49.01;62.02;;
74496;Laerm;62979;55.720;37.606;2023-06-22T06:32:48;57.22;49.96;66.68;;
74496;Laerm;62979;55.720;37.606;2023-06-22T06:35:17;61.15;50.85;80.09;;
74496;Laerm;62979;55.720;37.606;2023-06-22T06:37:47;57.65;50.49;72.68;;
74496;Laerm;62979;55.720;37.606;2023-06-22T06:40:16;58.98;50.61;71.61;;
74496;Laerm;62979;55.720;37.606;2023-06-22T06:42:46;58.99;51.64;76.53;;
74496;Laerm;62979;55.720;37.606;2023-06-22T06:45:16;61.39;49.09;85.52;;
74496;Laerm;62979;55.720;37.606;2023-06-22T06:47:44;56.67;48.49;68.57;;
74496;Laerm;62979;55.720;37.606;2023-06-22T06:50:11;56.34;48.02;62.04;;
74496;Laerm;62979;55.720;37.606;2023-06-22T06:52:40;55.72;48.21;71.71;;
74496;Laerm;62979;55.720;37.606;2023-06-22T06:55:08;57.16;51.88;64.33;;
74496;Laerm;62979;55.720;37.606;2023-06-22T06:57:38;66.58;55.07;81.88;;
74496;Laerm;62979;55.720;37.606;2023-06-22T07:00:07;57.32;52.60;66.07;;
74496;Laerm;62979;55.720;37.606;2023-06-22T07:02:38;57.24;49.76;69.07;;
74496;Laerm;62979;55.720;37.606;2023-06-22T07:05:07;56.35;50.66;62.98;;
74496;Laerm;62979;55.720;37.606;2023-06-22T07:07:35;56.66;52.16;62.76;;
74496;Laerm;62979;55.720;37.606;2023-06-22T07:10:05;57.25;51.64;64.73;;
74496;Laerm;62979;55.720;37.606;2023-06-22T07:12:32;58.98;54.65;63.46;;
74496;Laerm;62979;55.720;37.606;2023-06-22T07:15:03;63.19;59.40;68.39;;
74496;Laerm;62979;55.720;37.606;2023-06-22T07:17:31;66.38;53.80;89.71;;
74496;Laerm;62979;55.720;37.606;2023-06-22T07:19:58;63.06;49.00;82.82;;
74496;Laerm;62979;55.720;37.606;2023-06-22T07:22:25;56.16;48.98;70.00;;
74496;Laerm;62979;55.720;37.606;2023-06-22T07:24:52;54.75;48.47;67.10;;
74496;Laerm;62979;55.720;37.606;2023-06-22T07:27:20;57.23;50.46;66.85;;
74496;Laerm;62979;55.720;37.606;2023-06-22T07:29:47;57.27;50.22;73.24;;
74496;Laerm;62979;55.720;37.606;2023-06-22T07:32:14;64.00;52.20;70.74;;
74496;Laerm;62979;55.720;37.606;2023-06-22T07:34:40;59.17;52.60;69.39;;
74496;Laerm;62979;55.720;37.606;2023-06-22T07:37:09;54.88;48.90;64.64;;
74496;Laerm;62979;55.720;37.606;2023-06-22T07:39:35;55.71;46.63;67.62;;
74496;Laerm;62979;55.720;37.606;2023-06-22T07:42:03;56.86;47.55;69.20;;
74496;Laerm;62979;55.720;37.606;2023-06-22T07:44:31;54.23;48.28;70.87;;
74496;Laerm;62979;55.720;37.606;2023-06-22T07:46:58;56.70;50.15;71.41;;
74496;Laerm;62979;55.720;37.606;2023-06-22T07:49:25;56.56;51.46;71.60;;
74496;Laerm;62979;55.720;37.606;2023-06-22T07:51:52;54.99;49.39;67.83;;
74496;Laerm;62979;55.720;37.606;2023-06-22T07:54:19;57.41;46.24;74.87;;
74496;Laerm;62979;55.720;37.606;2023-06-22T07:56:46;55.44;46.81;65.52;;
74496;Laerm;62979;55.720;37.606;2023-06-22T07:59:13;56.03;49.40;64.34;;
74496;Laerm;62979;55.720;37.606;2023-06-22T08:01:42;55.45;48.07;65.66;;
74496;Laerm;62979;55.720;37.606;2023-06-22T08:04:09;54.46;48.05;65.10;;
74496;Laerm;62979;55.720;37.606;2023-06-22T08:06:36;61.52;53.12;77.64;;
74496;Laerm;62979;55.720;37.606;2023-06-22T08:09:03;61.91;51.66;76.46;;
74496;Laerm;62979;55.720;37.606;2023-06-22T08:11:30;61.09;49.90;77.25;;
74496;Laerm;62979;55.720;37.606;2023-06-22T08:13:58;54.72;47.38;63.85;;
74496;Laerm;62979;55.720;37.606;2023-06-22T08:16:25;54.92;47.21;65.91;;
74496;Laerm;62979;55.720;37.606;2023-06-22T08:18:53;54.89;46.11;61.88;;
74496;Laerm;62979;55.720;37.606;2023-06-22T08:21:20;53.99;47.53;65.63;;
74496;Laerm;62979;55.720;37.606;2023-06-22T08:23:48;57.21;49.40;71.14;;
74496;Laerm;62979;55.720;37.606;2023-06-22T08:26:15;63.94;49.86;83.18;;
74496;Laerm;62979;55.720;37.606;2023-06-22T08:28:42;62.76;50.77;74.54;;
74496;Laerm;62979;55.720;37.606;2023-06-22T08:31:09;56.04;48.86;65.53;;
74496;Laerm;62979;55.720;37.606;2023-06-22T08:33:37;57.06;51.33;63.59;;
74496;Laerm;62979;55.720;37.606;2023-06-22T08:36:06;56.35;49.71;68.49;;
74496;Laerm;62979;55.720;37.606;2023-06-22T08:38:33;56.48;49.93;62.42;;
74496;Laerm;62979;55.720;37.606;2023-06-22T08:41:00;55.86;49.73;69.73;;
74496;Laerm;62979;55.720;37.606;2023-06-22T08:43:28;54.93;49.37;65.56;;
74496;Laerm;62979;55.720;37.606;2023-06-22T08:45:55;56.03;48.30;66.00;;
74496;Laerm;62979;55.720;37.606;2023-06-22T08:48:22;55.19;47.40;68.77;;
74496;Laerm;62979;55.720;37.606;2023-06-22T08:50:49;55.16;49.82;63.55;;
74496;Laerm;62979;55.720;37.606;2023-06-22T08:53:17;54.99;47.63;64.37;;
74496;Laerm;62979;55.720;37.606;2023-06-22T08:55:44;56.63;50.25;72.48;;
74496;Laerm;62979;55.720;37.606;2023-06-22T08:58:11;57.18;51.17;69.84;;
74496;Laerm;62979;55.720;37.606;2023-06-22T09:00:38;55.30;46.71;64.92;;
74496;Laerm;62979;55.720;37.606;2023-06-22T09:03:05;54.58;48.80;66.76;;
74496;Laerm;62979;55.720;37.606;2023-06-22T09:05:32;55.30;47.55;69.34;;
74496;Laerm;62979;55.720;37.606;2023-06-22T09:07:59;55.60;48.93;65.42;;
74496;Laerm;62979;55.720;37.606;2023-06-22T09:10:27;58.57;51.05;77.05;;
74496;Laerm;62979;55.720;37.606;2023-06-22T09:12:54;61.22;50.11;83.44;;
74496;Laerm;62979;55.720;37.606;2023-06-22T09:15:21;60.31;50.52;78.22;;
74496;Laerm;62979;55.720;37.606;2023-06-22T09:17:48;65.82;50.56;89.59;;
74496;Laerm;62979;55.720;37.606;2023-06-22T09:20:15;58.58;50.78;71.19;;
74496;Laerm;62979;55.720;37.606;2023-06-22T09:22:42;59.11;51.48;67.90;;
74496;Laerm;62979;55.720;37.606;2023-06-22T09:25:09;61.27;51.79;73.11;;
74496;Laerm;62979;55.720;37.606;2023-06-22T09:27:37;56.95;50.16;68.32;;
74496;Laerm;62979;55.720;37.606;2023-06-22T09:30:06;58.79;51.58;79.73;;
74496;Laerm;62979;55.720;37.606;2023-06-22T09:32:33;57.10;48.79;74.10;;
74496;Laerm;62979;55.720;37.606;2023-06-22T09:35:04;56.43;48.48;76.79;;
74496;Laerm;62979;55.720;37.606;2023-06-22T09:37:32;56.30;49.41;81.20;;
74496;Laerm;62979;55.720;37.606;2023-06-22T09:39:59;55.01;49.94;62.82;;
74496;Laerm;62979;55.720;37.606;2023-06-22T09:42:26;56.71;51.83;64.47;;
74496;Laerm;62979;55.720;37.606;2023-06-22T09:44:54;60.39;53.00;71.89;;
74496;Laerm;62979;55.720;37.606;2023-06-22T09:47:21;57.11;49.79;70.45;;
74496;Laerm;62979;55.720;37.606;2023-06-22T09:49:48;55.55;50.08;65.40;;
74496;Laerm;62979;55.720;37.606;2023-06-22T09:52:15;54.51;48.99;60.78;;
74496;Laerm;62979;55.720;37.606;2023-06-22T09:54:42;54.03;48.71;63.64;;
74496;Laerm;62979;55.720;37.606;2023-06-22T09:57:09;55.86;49.61;64.43;;
74496;Laerm;62979;55.720;37.606;2023-06-22T09:59:36;54.93;46.81;63.31;;
74496;Laerm;62979;55.720;37.606;2023-06-22T10:02:05;53.93;44.64;65.07;;
74496;Laerm;62979;55.720;37.606;2023-06-22T10:04:33;54.62;47.51;64.58;;
74496;Laerm;62979;55.720;37.606;2023-06-22T10:07:00;57.01;47.76;70.71;;
74496;Laerm;62979;55.720;37.606;2023-06-22T10:09:27;59.33;48.27;76.39;;
74496;Laerm;62979;55.720;37.606;2023-06-22T10:11:54;54.52;49.00;65.28;;
74496;Laerm;62979;55.720;37.606;2023-06-22T10:14:20;54.63;46.96;66.36;;
74496;Laerm;62979;55.720;37.606;2023-06-22T10:16:48;54.17;47.85;63.79;;
74496;Laerm;62979;55.720;37.606;2023-06-22T10:19:16;54.32;47.75;62.27;;
74496;Laerm;62979;55.720;37.606;2023-06-22T10:21:43;54.72;47.61;62.05;;
74496;Laerm;62979;55.720;37.606;2023-06-22T10:24:10;54.26;49.13;62.40;;
74496;Laerm;62979;55.720;37.606;2023-06-22T10:26:37;54.76;48.28;65.24;;
74496;Laerm;62979;55.720;37.606;2023-06-22T10:29:04;56.64;48.28;75.55;;
74496;Laerm;62979;55.720;37.606;2023-06-22T10:31:31;55.74;47.38;67.08;;
74496;Laerm;62979;55.720;37.606;2023-06-22T10:33:57;54.77;48.83;62.32;;
74496;Laerm;62979;55.720;37.606;2023-06-22T10:36:26;59.62;47.88;74.27;;
74496;Laerm;62979;55.720;37.606;2023-06-22T10:38:53;56.65;49.76;67.22;;
74496;Laerm;62979;55.720;37.606;2023-06-22T10:41:21;53.87;45.17;62.11;;
74496;Laerm;62979;55.720;37.606;2023-06-22T10:43:47;54.84;46.67;65.53;;
74496;Laerm;62979;55.720;37.606;2023-06-22T10:46:14;52.40;44.45;60.07;;
74496;Laerm;62979;55.720;37.606;2023-06-22T10:48:41;53.93;46.73;65.45;;
74496;Laerm;62979;55.720;37.606;2023-06-22T10:51:08;53.69;47.40;61.34;;
74496;Laerm;62979;55.720;37.606;2023-06-22T10:53:36;54.40;48.34;65.47;;
74496;Laerm;62979;55.720;37.606;2023-06-22T10:56:04;56.20;49.12;65.61;;
74496;Laerm;62979;55.720;37.606;2023-06-22T10:58:31;53.72;47.55;61.91;;
74496;Laerm;62979;55.720;37.606;2023-06-22T11:00:58;55.28;46.84;64.45;;
74496;Laerm;62979;55.720;37.606;2023-06-22T11:03:25;57.23;50.71;69.13;;
74496;Laerm;62979;55.720;37.606;2023-06-22T11:05:52;57.75;51.31;74.83;;
74496;Laerm;62979;55.720;37.606;2023-06-22T11:08:19;56.52;50.50;72.28;;
74496;Laerm;62979;55.720;37.606;2023-06-22T11:10:47;55.77;49.10;68.56;;
74496;Laerm;62979;55.720;37.606;2023-06-22T11:13:13;53.36;48.49;60.67;;
74496;Laerm;62979;55.720;37.606;2023-06-22T11:15:40;56.19;49.39;65.65;;
74496;Laerm;62979;55.720;37.606;2023-06-22T11:18:07;56.14;48.87;66.47;;
74496;Laerm;62979;55.720;37.606;2023-06-22T11:20:34;57.22;51.58;67.42;;
74496;Laerm;62979;55.720;37.606;2023-06-22T11:23:04;56.29;51.16;64.48;;
74496;Laerm;62979;55.720;37.606;2023-06-22T11:25:32;56.30;50.59;66.09;;
74496;Laerm;62979;55.720;37.606;2023-06-22T11:28:02;56.37;48.33;72.41;;
74496;Laerm;62979;55.720;37.606;2023-06-22T11:30:29;55.43;48.42;65.40;;
74496;Laerm;62979;55.720;37.606;2023-06-22T11:32:56;54.63;47.75;64.04;;
74496;Laerm;62979;55.720;37.606;2023-06-22T11:35:24;55.66;50.71;64.52;;
74496;Laerm;62979;55.720;37.606;2023-06-22T11:37:51;55.86;48.20;68.23;;
74496;Laerm;62979;55.720;37.606;2023-06-22T11:40:18;53.93;48.06;61.08;;
74496;Laerm;62979;55.720;37.606;2023-06-22T11:42:45;55.37;48.85;62.82;;
74496;Laerm;62979;55.720;37.606;2023-06-22T11:45:13;53.97;47.18;61.89;;
74496;Laerm;62979;55.720;37.606;2023-06-22T11:47:40;55.65;47.80;68.01;;
74496;Laerm;62979;55.720;37.606;2023-06-22T11:50:08;55.93;48.28;68.23;;
74496;Laerm;62979;55.720;37.606;2023-06-22T11:52:35;57.78;49.35;70.41;;
74496;Laerm;62979;55.720;37.606;2023-06-22T11:55:03;57.63;49.49;71.74;;
74496;Laerm;62979;55.720;37.606;2023-06-22T11:57:33;58.85;50.83;73.38;;
74496;Laerm;62979;55.720;37.606;2023-06-22T12:00:01;56.95;50.51;72.86;;
74496;Laerm;62979;55.720;37.606;2023-06-22T12:02:33;58.69;49.81;72.85;;
74496;Laerm;62979;55.720;37.606;2023-06-22T12:05:00;59.15;51.47;70.78;;
74496;Laerm;62979;55.720;37.606;2023-06-22T12:07:27;57.98;50.33;66.93;;
74496;Laerm;62979;55.720;37.606;2023-06-22T12:09:54;59.36;52.57;73.03;;
74496;Laerm;62979;55.720;37.606;2023-06-22T12:12:21;58.45;50.62;69.83;;
74496;Laerm;62979;55.720;37.606;2023-06-22T12:14:48;58.58;50.72;71.89;;
74496;Laerm;62979;55.720;37.606;2023-06-22T12:17:15;58.80;50.79;69.17;;
74496;Laerm;62979;55.720;37.606;2023-06-22T12:19:43;58.23;51.15;70.36;;
74496;Laerm;62979;55.720;37.606;2023-06-22T12:22:10;59.15;52.12;77.01;;
74496;Laerm;62979;55.720;37.606;2023-06-22T12:24:37;58.25;51.81;69.34;;
74496;Laerm;62979;55.720;37.606;2023-06-22T12:27:04;57.40;50.66;68.54;;
74496;Laerm;62979;55.720;37.606;2023-06-22T12:29:31;58.43;50.21;68.14;;
74496;Laerm;62979;55.720;37.606;2023-06-22T12:31:58;58.89;50.05;72.15;;
74496;Laerm;62979;55.720;37.606;2023-06-22T12:34:25;58.50;51.02;72.94;;
74496;Laerm;62979;55.720;37.606;2023-06-22T12:36:53;59.13;52.57;71.81;;
74496;Laerm;62979;55.720;37.606;2023-06-22T12:39:20;60.89;50.83;76.13;;
74496;Laerm;62979;55.720;37.606;2023-06-22T12:41:47;59.72;52.50;68.88;;
74496;Laerm;62979;55.720;37.606;2023-06-22T12:44:14;62.49;51.92;76.93;;
74496;Laerm;62979;55.720;37.606;2023-06-22T12:46:41;60.48;51.05;74.04;;
74496;Laerm;62979;55.720;37.606;2023-06-22T12:49:08;59.28;48.62;77.19;;
74496;Laerm;62979;55.720;37.606;2023-06-22T12:51:40;59.98;51.63;73.63;;
74496;Laerm;62979;55.720;37.606;2023-06-22T12:54:09;57.01;49.11;66.22;;
74496;Laerm;62979;55.720;37.606;2023-06-22T12:56:37;54.34;49.40;60.71;;
74496;Laerm;62979;55.720;37.606;2023-06-22T12:59:05;56.84;48.71;64.69;;
74496;Laerm;62979;55.720;37.606;2023-06-22T13:01:32;54.35;45.92;62.12;;
74496;Laerm;62979;55.720;37.606;2023-06-22T13:03:59;57.83;47.72;73.86;;
74496;Laerm;62979;55.720;37.606;2023-06-22T13:06:26;55.50;48.08;68.95;;
74496;Laerm;62979;55.720;37.606;2023-06-22T13:08:53;54.56;47.31;61.53;;
74496;Laerm;62979;55.720;37.606;2023-06-22T13:11:21;55.41;48.98;68.16;;
74496;Laerm;62979;55.720;37.606;2023-06-22T13:13:48;54.55;48.32;60.83;;
74496;Laerm;62979;55.720;37.606;2023-06-22T13:16:15;55.19;48.98;61.97;;
74496;Laerm;62979;55.720;37.606;2023-06-22T13:18:42;55.84;49.27;74.29;;
74496;Laerm;62979;55.720;37.606;2023-06-22T13:21:09;53.64;47.90;62.69;;
74496;Laerm;62979;55.720;37.606;2023-06-22T13:23:35;58.04;49.60;65.73;;
74496;Laerm;62979;55.720;37.606;2023-06-22T13:26:02;59.95;55.34;65.39;;
74496;Laerm;62979;55.720;37.606;2023-06-22T13:28:31;59.45;55.47;64.23;;
74496;Laerm;62979;55.720;37.606;2023-06-22T13:30:57;58.41;51.43;70.10;;
74496;Laerm;62979;55.720;37.606;2023-06-22T13:33:24;61.01;52.99;72.99;;
74496;Laerm;62979;55.720;37.606;2023-06-22T13:35:51;58.41;53.72;64.09;;